createdAt,value
2023-03-22T00:02:16.503Z,1.10
2023-03-22T00:04:43.612Z,1.17
2023-03-22T00:07:10.475Z,1.00
2023-03-22T00:09:37.825Z,1.10
2023-03-22T00:12:04.772Z,1.20
2023-03-22T00:14:31.641Z,1.20
2023-03-22T00:16:58.478Z,1.25
2023-03-22T00:19:26.420Z,1.10
2023-03-22T00:21:53.222Z,1.23
2023-03-22T00:24:21.261Z,0.85
2023-03-22T00:26:48.107Z,0.98
2023-03-22T00:29:14.972Z,1.33
2023-03-22T00:31:42.046Z,1.10
2023-03-22T00:34:08.953Z,1.00
2023-03-22T00:36:38.013Z,1.55
2023-03-22T00:39:04.925Z,1.30
2023-03-22T00:41:31.849Z,1.20
2023-03-22T00:43:58.738Z,1.55
2023-03-22T00:46:26.092Z,1.27
2023-03-22T00:48:53.090Z,1.20
2023-03-22T00:51:19.921Z,1.92
2023-03-22T00:53:50.032Z,1.30
2023-03-22T00:56:16.916Z,1.08
2023-03-22T00:58:43.981Z,1.10
2023-03-22T01:01:14.205Z,1.70
2023-03-22T01:03:42.095Z,1.23
2023-03-22T01:06:09.201Z,1.15
2023-03-22T01:08:39.297Z,1.45
2023-03-22T01:11:07.182Z,1.30
2023-03-22T01:13:34.331Z,1.15
2023-03-22T01:16:01.173Z,1.30
2023-03-22T01:18:27.996Z,1.50
2023-03-22T01:20:54.946Z,1.73
2023-03-22T01:23:21.767Z,1.48
2023-03-22T01:25:48.565Z,1.70
2023-03-22T01:28:15.613Z,1.48
2023-03-22T01:30:45.081Z,1.63
2023-03-22T01:33:12.003Z,1.40
2023-03-22T01:35:39.538Z,1.45
2023-03-22T01:38:06.687Z,1.58
2023-03-22T01:40:33.946Z,1.88
2023-03-22T01:43:00.811Z,1.27
2023-03-22T01:45:27.669Z,1.27
2023-03-22T01:47:56.327Z,1.50
2023-03-22T01:50:24.271Z,1.85
2023-03-22T01:52:51.688Z,1.30
2023-03-22T01:55:18.677Z,1.27
2023-03-22T01:57:45.739Z,1.23
2023-03-22T02:00:19.137Z,1.30
2023-03-22T02:02:48.244Z,1.42
2023-03-22T02:05:15.216Z,1.25
2023-03-22T02:07:42.658Z,1.27
2023-03-22T02:10:13.991Z,1.20
2023-03-22T02:12:53.143Z,1.42
2023-03-22T02:15:19.871Z,1.40
2023-03-22T02:18:06.510Z,1.30
2023-03-22T02:20:40.079Z,1.35
2023-03-22T02:23:22.495Z,1.33
2023-03-22T02:25:52.553Z,1.45
2023-03-22T02:28:19.360Z,1.20
2023-03-22T02:30:56.150Z,1.10
2023-03-22T02:33:29.126Z,0.90
2023-03-22T02:36:08.491Z,1.77
2023-03-22T02:39:04.730Z,1.63
2023-03-22T02:41:37.296Z,1.13
2023-03-22T02:44:10.419Z,1.02
2023-03-22T02:46:42.655Z,1.20
2023-03-22T02:49:14.432Z,1.23
2023-03-22T02:51:42.681Z,1.85
2023-03-22T02:54:14.129Z,1.33
2023-03-22T02:56:44.647Z,1.50
2023-03-22T02:59:12.046Z,1.20
2023-03-22T03:02:05.658Z,1.00
2023-03-22T03:04:34.576Z,1.38
2023-03-22T03:07:07.294Z,1.08
2023-03-22T03:09:34.189Z,0.80
2023-03-22T03:12:01.021Z,1.40
2023-03-22T03:14:31.765Z,1.23
2023-03-22T03:17:07.761Z,1.10
2023-03-22T03:19:41.536Z,1.00
2023-03-22T03:22:08.308Z,0.93
2023-03-22T03:25:01.741Z,0.90
2023-03-22T03:27:32.708Z,1.33
2023-03-22T03:30:10.125Z,1.15
2023-03-22T03:32:54.580Z,1.08
2023-03-22T03:35:38.428Z,0.80
2023-03-22T03:38:09.995Z,0.90
2023-03-22T03:43:04.659Z,0.90
2023-03-22T03:45:31.889Z,1.27
2023-03-22T03:48:00.567Z,1.08
2023-03-22T03:50:27.890Z,0.68
2023-03-22T03:52:55.300Z,0.95
2023-03-22T03:55:22.672Z,0.80
2023-03-22T03:57:49.468Z,0.70
2023-03-22T04:00:17.016Z,0.95
2023-03-22T04:02:44.242Z,0.70
2023-03-22T04:05:11.975Z,0.80
2023-03-22T04:07:39.027Z,0.88
2023-03-22T04:10:06.223Z,0.77
2023-03-22T04:12:33.147Z,1.50
2023-03-22T04:15:00.001Z,0.88
2023-03-22T04:17:29.413Z,0.73
2023-03-22T04:19:59.172Z,1.10
2023-03-22T04:22:26.764Z,0.80
2023-03-22T04:24:53.731Z,0.57
2023-03-22T04:27:21.246Z,0.80
2023-03-22T04:29:51.177Z,0.70
2023-03-22T04:32:22.964Z,0.55
2023-03-22T04:34:50.099Z,0.68
2023-03-22T04:37:17.607Z,0.52
2023-03-22T04:39:44.891Z,0.50
2023-03-22T04:42:12.282Z,0.38
2023-03-22T04:44:39.122Z,0.50
2023-03-22T04:47:06.115Z,0.60
2023-03-22T04:49:32.969Z,0.70
2023-03-22T04:51:59.776Z,0.60
2023-03-22T04:54:26.647Z,0.60
2023-03-22T04:56:53.464Z,1.15
2023-03-22T04:59:20.595Z,0.82
2023-03-22T05:01:51.599Z,0.55
2023-03-22T05:04:18.700Z,0.50
2023-03-22T05:06:45.708Z,0.52
2023-03-22T05:09:12.766Z,0.57
2023-03-22T05:11:40.818Z,0.57
2023-03-22T05:14:08.633Z,0.50
2023-03-22T05:16:36.106Z,0.60
2023-03-22T05:19:03.249Z,0.70
2023-03-22T05:21:36.756Z,0.70
2023-03-22T05:24:03.735Z,0.60
2023-03-22T05:26:30.520Z,0.77
2023-03-22T05:28:57.369Z,0.75
2023-03-22T05:31:24.410Z,0.80
2023-03-22T05:33:51.858Z,1.10
2023-03-22T05:36:19.778Z,0.80
2023-03-22T05:38:46.762Z,0.90
2023-03-22T05:41:13.936Z,0.85
2023-03-22T05:43:41.164Z,0.65
2023-03-22T05:46:08.626Z,1.00
2023-03-22T05:48:36.394Z,0.60
2023-03-22T05:51:05.852Z,0.80
2023-03-22T05:53:33.267Z,0.55
2023-03-22T05:56:03.436Z,0.88
2023-03-22T05:58:31.086Z,0.88
2023-03-22T06:01:01.032Z,1.02
2023-03-22T06:03:28.513Z,0.60
2023-03-22T06:05:55.413Z,0.65
2023-03-22T06:08:24.731Z,0.60
2023-03-22T06:10:53.021Z,0.60
2023-03-22T06:13:20.438Z,0.60
2023-03-22T06:15:47.387Z,0.82
2023-03-22T06:18:14.225Z,0.65
2023-03-22T06:20:41.555Z,0.60
2023-03-22T06:23:08.747Z,0.80
2023-03-22T06:25:35.808Z,0.73
2023-03-22T06:28:02.752Z,1.05
2023-03-22T06:30:29.636Z,0.70
2023-03-22T06:33:00.555Z,0.50
2023-03-22T06:35:27.730Z,0.90
2023-03-22T06:37:54.661Z,0.70
2023-03-22T06:40:21.519Z,0.60
2023-03-22T06:42:48.463Z,0.85
2023-03-22T06:45:16.730Z,0.60
2023-03-22T06:47:44.228Z,0.90
2023-03-22T06:50:11.207Z,0.70
2023-03-22T06:52:38.053Z,0.60
2023-03-22T06:55:05.050Z,0.90
2023-03-22T06:57:31.830Z,0.77
2023-03-22T06:59:58.828Z,0.90
2023-03-22T07:02:25.675Z,0.80
2023-03-22T07:04:52.558Z,1.33
2023-03-22T07:07:19.452Z,0.70
2023-03-22T07:09:46.396Z,0.80
2023-03-22T07:12:13.232Z,0.90
2023-03-22T07:14:40.433Z,1.20
2023-03-22T07:17:07.381Z,0.70
2023-03-22T07:19:34.303Z,0.80
2023-03-22T07:22:01.111Z,0.90
2023-03-22T07:24:27.966Z,1.00
2023-03-22T07:26:54.799Z,0.80
2023-03-22T07:29:21.657Z,1.10
2023-03-22T07:31:48.569Z,1.20
2023-03-22T07:34:16.426Z,1.02
2023-03-22T07:36:43.303Z,1.00
2023-03-22T07:39:10.401Z,1.13
2023-03-22T07:41:37.219Z,1.00
2023-03-22T07:44:17.028Z,0.80
2023-03-22T07:46:44.748Z,1.35
2023-03-22T07:49:11.715Z,1.25
2023-03-22T07:51:38.533Z,1.10
2023-03-22T07:54:07.630Z,1.23
2023-03-22T07:56:34.808Z,1.17
2023-03-22T07:59:01.771Z,1.60
2023-03-22T08:01:28.674Z,1.55
2023-03-22T08:03:55.694Z,1.15
2023-03-22T08:06:22.640Z,0.80
2023-03-22T08:08:49.513Z,1.10
2023-03-22T08:11:16.389Z,1.20
2023-03-22T08:13:43.217Z,1.35
2023-03-22T08:16:10.530Z,1.27
2023-03-22T08:18:37.683Z,1.33
2023-03-22T08:21:04.530Z,1.15
2023-03-22T08:23:41.412Z,1.65
2023-03-22T08:26:10.009Z,1.20
2023-03-22T08:28:36.914Z,1.60
2023-03-22T08:31:09.783Z,1.42
2023-03-22T08:33:36.616Z,1.52
2023-03-22T08:36:07.588Z,1.05
2023-03-22T08:38:34.398Z,1.10
2023-03-22T08:41:03.756Z,1.10
2023-03-22T08:43:30.704Z,1.45
2023-03-22T08:45:57.772Z,1.17
2023-03-22T08:48:25.082Z,1.02
2023-03-22T08:50:52.321Z,1.77
2023-03-22T08:53:19.119Z,1.35
2023-03-22T08:55:45.914Z,2.38
2023-03-22T08:58:13.224Z,1.60
2023-03-22T09:00:48.525Z,1.40
2023-03-22T09:03:16.304Z,1.67
2023-03-22T09:05:43.555Z,1.52
2023-03-22T09:08:18.656Z,1.70
2023-03-22T09:10:51.281Z,1.50
2023-03-22T09:13:18.723Z,1.60
2023-03-22T09:15:45.826Z,1.67
2023-03-22T09:18:13.182Z,1.88
2023-03-22T09:20:40.376Z,1.80
2023-03-22T09:23:07.391Z,2.17
2023-03-22T09:25:34.301Z,1.65
2023-03-22T09:28:01.323Z,2.15
2023-03-22T09:30:28.235Z,1.90
2023-03-22T09:32:55.246Z,2.08
2023-03-22T09:35:22.369Z,1.70
2023-03-22T09:37:49.637Z,1.60
2023-03-22T09:40:17.819Z,1.67
2023-03-22T09:42:46.560Z,1.77
2023-03-22T09:45:23.048Z,1.80
2023-03-22T09:47:51.526Z,1.75
2023-03-22T09:50:30.048Z,2.08
2023-03-22T09:52:57.401Z,1.90
2023-03-22T09:55:24.231Z,2.17
2023-03-22T09:58:11.773Z,2.00
2023-03-22T10:00:42.927Z,1.63
2023-03-22T10:03:42.353Z,1.70
2023-03-22T10:06:16.138Z,1.65
2023-03-22T10:08:55.331Z,2.03
2023-03-22T10:11:22.132Z,1.63
2023-03-22T10:13:57.421Z,1.88
2023-03-22T10:16:32.919Z,1.45
2023-03-22T10:19:13.187Z,1.50
2023-03-22T10:21:40.401Z,1.77
2023-03-22T10:24:15.358Z,2.08
2023-03-22T10:26:45.263Z,1.38
2023-03-22T10:29:13.660Z,1.45
2023-03-22T10:31:43.569Z,1.52
2023-03-22T10:34:20.493Z,1.92
2023-03-22T10:36:48.276Z,1.90
2023-03-22T10:39:24.331Z,2.08
2023-03-22T10:41:52.738Z,2.15
2023-03-22T10:44:20.551Z,2.00
2023-03-22T10:46:49.058Z,1.92
2023-03-22T10:49:23.413Z,1.80
2023-03-22T10:51:51.601Z,1.33
2023-03-22T10:54:20.366Z,1.70
2023-03-22T10:56:47.466Z,1.75
2023-03-22T10:59:33.228Z,1.60
2023-03-22T11:02:01.768Z,1.95
2023-03-22T11:04:31.325Z,1.52
2023-03-22T11:06:58.173Z,2.10
2023-03-22T11:09:25.005Z,1.65
2023-03-22T11:11:53.289Z,1.50
2023-03-22T11:14:28.093Z,1.40
2023-03-22T11:17:08.077Z,1.80
2023-03-22T11:20:01.985Z,1.90
2023-03-22T11:22:37.485Z,1.50
2023-03-22T11:25:10.370Z,1.48
2023-03-22T11:27:37.184Z,1.35
2023-03-22T11:30:22.982Z,1.20
2023-03-22T11:32:59.253Z,1.10
2023-03-22T11:35:27.257Z,1.10
2023-03-22T11:37:55.365Z,0.98
2023-03-22T11:40:29.705Z,1.20
2023-03-22T11:43:03.288Z,1.33
2023-03-22T11:45:31.591Z,0.80
2023-03-22T11:48:03.244Z,1.00
2023-03-22T11:50:31.725Z,1.00
2023-03-22T11:53:01.733Z,1.10
2023-03-22T11:55:31.506Z,1.10
2023-03-22T11:57:58.503Z,1.13
2023-03-22T12:00:26.782Z,1.00
2023-03-22T12:03:07.637Z,1.30
2023-03-22T12:05:37.246Z,0.90
2023-03-22T12:08:09.418Z,1.50
2023-03-22T12:10:41.049Z,1.35
2023-03-22T12:13:20.274Z,1.20
2023-03-22T12:15:50.489Z,1.20
2023-03-22T12:18:32.583Z,1.30
2023-03-22T12:21:00.846Z,1.23
2023-03-22T12:23:34.142Z,1.02
2023-03-22T12:26:03.583Z,1.42
2023-03-22T12:28:59.832Z,1.30
2023-03-22T12:31:36.243Z,1.08
2023-03-22T12:34:05.424Z,1.17
2023-03-22T12:36:41.530Z,1.40
2023-03-22T12:39:09.513Z,1.30
2023-03-22T12:41:40.951Z,1.30
2023-03-22T12:44:15.420Z,1.02
2023-03-22T12:46:49.578Z,1.13
2023-03-22T12:49:24.454Z,1.20
2023-03-22T12:51:52.375Z,1.27
2023-03-22T12:54:21.380Z,1.50
2023-03-22T12:56:48.600Z,1.17
2023-03-22T12:59:17.348Z,1.35
2023-03-22T13:01:47.195Z,1.00
2023-03-22T13:04:29.519Z,1.20
2023-03-22T13:06:57.579Z,1.58
2023-03-22T13:09:41.980Z,1.40
2023-03-22T13:12:18.055Z,1.27
2023-03-22T13:14:51.731Z,1.13
2023-03-22T13:17:24.984Z,1.10
2023-03-22T13:19:55.430Z,1.33
2023-03-22T13:22:22.305Z,1.17
2023-03-22T13:25:23.801Z,1.23
2023-03-22T13:27:53.173Z,1.33
2023-03-22T13:30:26.367Z,1.55
2023-03-22T13:32:56.246Z,1.23
2023-03-22T13:35:41.928Z,1.08
2023-03-22T13:38:10.762Z,1.50
2023-03-22T13:40:39.826Z,1.35
2023-03-22T13:43:30.254Z,1.50
2023-03-22T13:46:01.227Z,1.52
2023-03-22T13:48:40.923Z,1.67
2023-03-22T13:51:18.898Z,1.42
2023-03-22T13:53:49.628Z,1.40
2023-03-22T13:56:27.651Z,1.38
2023-03-22T13:58:54.493Z,1.80
2023-03-22T14:01:35.188Z,1.40
2023-03-22T14:04:05.444Z,2.17
2023-03-22T14:06:34.198Z,2.13
2023-03-22T14:09:06.223Z,1.35
2023-03-22T14:11:39.083Z,1.58
2023-03-22T14:14:13.560Z,1.45
2023-03-22T14:16:42.091Z,1.95
2023-03-22T14:19:14.184Z,1.30
2023-03-22T14:21:44.696Z,1.70
